Time;durP1;ratioP1;P1;durP2;ratioP2;P2;SDS_P1;SDS_P2;PMS_P1;PMS_P2;Temp;Humidity;BMP_temperature;BMP_pressure;BME280_temperature;BME280_humidity;BME280_pressure;Samples;Min_cycle;Max_cycle;Signal;HPM_P1;HPM_P2
2023/12/26 00:01:36;;;;;;;7.23;2.60;;;;;;;4.93;78.52;99241.06;4985902;28;20652;-56
2023/12/26 00:04:04;;;;;;;10.73;2.80;;;;;;;4.93;78.60;99233.41;4993906;28;20238;-55
2023/12/26 00:06:34;;;;;;;8.23;2.67;;;;;;;4.89;78.31;99229.16;4994182;28;20214;-52
2023/12/26 00:09:02;;;;;;;10.33;3.00;;;;;;;4.90;78.31;99241.09;4994324;28;20298;-56
2023/12/26 00:11:31;;;;;;;12.07;3.50;;;;;;;4.90;78.62;99242.78;4990847;28;20516;-53
2023/12/26 00:13:58;;;;;;;10.23;3.13;;;;;;;4.88;78.85;99242.78;4991119;28;20211;-53
2023/12/26 00:16:26;;;;;;;10.43;3.20;;;;;;;4.88;78.25;99242.78;4995443;28;20200;-55
2023/12/26 00:18:54;;;;;;;7.43;2.63;;;;;;;4.87;79.27;99246.19;4994427;28;20200;-56
2023/12/26 00:21:22;;;;;;;11.70;2.80;;;;;;;4.85;78.99;99253.84;4992942;28;20243;-57
2023/12/26 00:23:52;;;;;;;8.50;2.73;;;;;;;4.84;79.46;99262.34;4991877;28;20232;-55
2023/12/26 00:26:20;;;;;;;9.77;2.93;;;;;;;4.85;78.98;99266.59;4990397;28;20200;-54
2023/12/26 00:28:47;;;;;;;11.03;2.90;;;;;;;4.84;79.43;99270.00;4986409;28;20205;-57
2023/12/26 00:31:16;;;;;;;12.43;3.53;;;;;;;4.83;79.48;99281.09;4998125;28;20671;-56
2023/12/26 00:33:43;;;;;;;4.57;2.60;;;;;;;4.80;79.62;99283.63;4993698;28;20283;-54
2023/12/26 00:36:13;;;;;;;9.53;2.40;;;;;;;4.81;79.78;99292.97;4980640;28;20215;-55
2023/12/26 00:38:41;;;;;;;10.13;3.13;;;;;;;4.80;79.34;99291.28;5002148;28;20231;-56
2023/12/26 00:41:11;;;;;;;8.83;2.87;;;;;;;4.81;79.14;99294.69;4991236;28;20212;-57
2023/12/26 00:43:38;;;;;;;8.40;3.33;;;;;;;4.81;79.27;99305.75;4995221;28;20216;-56
2023/12/26 00:46:07;;;;;;;10.67;3.23;;;;;;;4.82;79.37;99314.25;5001873;28;20211;-59
2023/12/26 00:48:37;;;;;;;8.73;2.70;;;;;;;4.84;78.86;99307.47;4994977;28;20212;-58
2023/12/26 00:51:05;;;;;;;6.50;2.63;;;;;;;4.85;78.72;99311.69;4998114;28;20938;-54
2023/12/26 00:53:33;;;;;;;13.47;3.23;;;;;;;4.85;79.48;99320.19;4997685;28;20212;-59
2023/12/26 00:56:01;;;;;;;12.03;3.20;;;;;;;4.86;78.99;99315.97;4996852;28;20203;-55
2023/12/26 00:58:31;;;;;;;9.53;2.60;;;;;;;4.87;78.70;99316.81;4999217;28;20226;-56
2023/12/26 01:00:59;;;;;;;9.60;3.03;;;;;;;4.88;79.22;99309.16;4989602;28;20208;-57
2023/12/26 01:03:27;;;;;;;6.47;2.47;;;;;;;4.88;79.37;99315.97;4993931;28;20215;-52
2023/12/26 01:05:55;;;;;;;10.13;3.33;;;;;;;4.89;80.13;99315.09;4997573;28;20211;-55
2023/12/26 01:08:23;;;;;;;12.57;2.67;;;;;;;4.86;79.30;99310.88;4998959;28;20199;-54
2023/12/26 01:10:51;;;;;;;9.77;2.90;;;;;;;4.85;79.38;99312.53;4995003;28;20228;-58
2023/12/26 01:13:19;;;;;;;14.57;3.07;;;;;;;4.85;80.21;99310.00;4997310;28;20226;-55
2023/12/26 01:15:48;;;;;;;9.93;3.10;;;;;;;4.85;79.72;99310.00;5000267;28;20266;-56
2023/12/26 01:18:17;;;;;;;10.70;3.10;;;;;;;4.85;79.94;99315.09;4993210;28;20667;-55
2023/12/26 01:20:45;;;;;;;8.40;2.73;;;;;;;4.87;80.35;99314.28;4994195;28;20207;-55
2023/12/26 01:23:13;;;;;;;9.13;2.53;;;;;;;4.84;80.03;99299.78;4996260;28;20313;-55
2023/12/26 01:25:41;;;;;;;11.13;3.00;;;;;;;4.85;79.83;99304.03;4998383;28;20215;-55
2023/12/26 01:28:09;;;;;;;10.17;2.73;;;;;;;4.84;80.03;99313.41;4994956;28;20281;-59
2023/12/26 01:30:38;;;;;;;11.40;3.07;;;;;;;4.85;79.51;99306.59;5001140;28;20203;-55
2023/12/26 01:33:08;;;;;;;8.37;2.50;;;;;;;4.84;79.61;99292.13;4996897;28;20192;-56
2023/12/26 01:35:36;;;;;;;12.53;3.63;;;;;;;4.83;79.20;99300.66;4992673;28;20206;-55
2023/12/26 01:38:05;;;;;;;7.37;2.87;;;;;;;4.85;78.94;99289.56;4998314;28;20212;-54
2023/12/26 01:40:32;;;;;;;7.27;2.53;;;;;;;4.88;78.70;99282.78;5002643;28;20200;-59
2023/12/26 01:43:00;;;;;;;6.40;2.40;;;;;;;4.93;78.29;99283.63;4995340;28;20274;-54
2023/12/26 01:45:28;;;;;;;6.87;2.97;;;;;;;4.96;78.54;99275.97;4999687;28;20218;-56
2023/12/26 01:48:00;;;;;;;9.77;2.47;;;;;;;4.94;78.25;99275.97;4997443;28;20207;-55
2023/12/26 01:50:30;;;;;;;8.57;2.63;;;;;;;5.00;77.85;99287.88;4988012;28;20640;-54
2023/12/26 01:52:58;;;;;;;11.00;2.70;;;;;;;5.02;77.82;99287.00;4994940;28;20214;-57
2023/12/26 01:55:26;;;;;;;5.73;2.30;;;;;;;5.07;78.25;99289.56;4983452;28;20732;-56
2023/12/26 01:57:57;;;;;;;6.87;3.20;;;;;;;5.08;77.64;99298.91;4991976;28;20208;-56
2023/12/26 02:00:25;;;;;;;10.20;2.60;;;;;;;5.11;78.05;99290.41;4995532;28;20537;-54
2023/12/26 02:02:54;;;;;;;9.87;2.90;;;;;;;5.13;77.34;99281.91;5002623;28;20215;-58
2023/12/26 02:05:23;;;;;;;10.47;3.33;;;;;;;5.18;77.54;99287.84;4996929;28;20218;-57
2023/12/26 02:07:53;;;;;;;8.53;2.20;;;;;;;5.22;77.34;99289.53;4995461;28;20856;-52
2023/12/26 02:10:21;;;;;;;7.60;2.40;;;;;;;5.23;77.23;99275.91;4997216;28;20307;-55
2023/12/26 02:12:49;;;;;;;5.37;2.00;;;;;;;5.25;77.54;99294.63;4993311;28;20196;-59
2023/12/26 02:15:18;;;;;;;3.47;2.03;;;;;;;5.26;77.43;99296.31;5004811;28;20262;-55
2023/12/26 02:17:46;;;;;;;7.80;2.63;;;;;;;5.26;77.64;99291.22;4993334;28;20212;-55
2023/12/26 02:20:15;;;;;;;8.47;2.83;;;;;;;5.27;77.87;99279.31;4982889;28;20209;-55
2023/12/26 02:22:45;;;;;;;14.17;2.80;;;;;;;5.28;78.19;99279.31;4993590;28;20231;-55
2023/12/26 02:25:15;;;;;;;6.07;2.40;;;;;;;5.28;78.31;99279.31;5003751;28;20200;-56
2023/12/26 02:27:43;;;;;;;6.50;2.50;;;;;;;5.31;79.41;99273.34;4998254;28;20211;-55
2023/12/26 02:30:12;;;;;;;9.40;2.90;;;;;;;5.30;79.12;99267.41;4998153;28;20207;-54
2023/12/26 02:32:42;;;;;;;10.00;2.67;;;;;;;5.31;79.44;99276.75;5000367;28;20220;-56
2023/12/26 02:35:11;;;;;;;9.20;2.73;;;;;;;5.32;79.80;99265.66;4997737;28;20207;-56
2023/12/26 02:37:39;;;;;;;8.37;2.77;;;;;;;5.33;79.56;99269.91;4989427;28;20200;-52
2023/12/26 02:40:08;;;;;;;7.23;2.70;;;;;;;5.33;80.31;99267.34;4993008;28;20567;-56
2023/12/26 02:42:37;;;;;;;8.33;2.90;;;;;;;5.33;80.52;99261.41;4991746;28;20266;-58
2023/12/26 02:45:07;;;;;;;11.27;2.80;;;;;;;5.30;80.27;99254.63;5003676;28;20262;-56
2023/12/26 02:47:34;;;;;;;10.33;3.30;;;;;;;5.33;80.67;99262.25;4991822;28;20302;-53
2023/12/26 02:50:03;;;;;;;9.47;2.83;;;;;;;5.34;80.61;99263.13;4991238;28;20676;-52
2023/12/26 02:52:31;;;;;;;6.87;2.60;;;;;;;5.32;81.09;99265.66;4996361;28;20263;-57
2023/12/26 02:54:59;;;;;;;6.50;3.17;;;;;;;5.33;81.42;99275.03;4992472;28;20199;-56
2023/12/26 02:57:27;;;;;;;10.87;3.20;;;;;;;5.31;81.82;99271.63;4990264;28;20195;-56
2023/12/26 02:59:56;;;;;;;9.20;3.33;;;;;;;5.30;82.46;99272.50;4996237;28;20229;-53
2023/12/26 03:02:24;;;;;;;6.50;2.90;;;;;;;5.32;82.01;99269.94;4992023;28;20208;-53
2023/12/26 03:04:52;;;;;;;5.20;2.57;;;;;;;5.33;82.64;99257.13;4992597;28;20212;-56
2023/12/26 03:07:20;;;;;;;9.87;2.83;;;;;;;5.33;82.28;99267.34;4997774;28;20204;-56
2023/12/26 03:09:48;;;;;;;7.60;3.03;;;;;;;5.35;82.43;99263.97;4998739;28;20212;-55
2023/12/26 03:12:16;;;;;;;7.23;3.43;;;;;;;5.38;82.57;99258.84;4993458;28;20208;-59
2023/12/26 03:14:44;;;;;;;10.97;3.53;;;;;;;5.39;82.73;99260.56;5007071;28;20210;-55
2023/12/26 03:17:13;;;;;;;12.07;3.70;;;;;;;5.38;82.48;99243.53;4999514;28;20203;-55
2023/12/26 03:19:41;;;;;;;7.87;2.57;;;;;;;5.41;82.46;99238.38;5004470;28;20654;-54
2023/12/26 03:22:09;;;;;;;8.20;2.90;;;;;;;5.41;82.22;99236.69;4993067;28;20267;-52
2023/12/26 03:24:37;;;;;;;10.03;3.40;;;;;;;5.44;81.93;99235.81;4993244;28;20307;-55
2023/12/26 03:27:07;;;;;;;6.83;2.70;;;;;;;5.44;81.96;99225.59;4996257;28;20216;-56
2023/12/26 03:29:36;;;;;;;8.90;2.77;;;;;;;5.44;82.06;99225.59;4989306;28;20262;-55
2023/12/26 03:32:04;;;;;;;10.23;2.83;;;;;;;5.44;81.88;99223.06;4992121;28;20750;-57
2023/12/26 03:34:34;;;;;;;6.77;2.53;;;;;;;5.46;81.69;99216.25;4995402;28;20675;-54
2023/12/26 03:37:02;;;;;;;8.13;3.00;;;;;;;5.48;82.15;99214.50;4993498;28;20298;-56
2023/12/26 03:39:30;;;;;;;6.93;3.13;;;;;;;5.51;81.52;99214.50;5006221;28;20685;-54
2023/12/26 03:41:58;;;;;;;7.47;3.07;;;;;;;5.53;81.33;99212.81;5004787;28;20734;-56
2023/12/26 03:44:26;;;;;;;9.03;3.17;;;;;;;5.53;81.79;99210.25;4991698;28;20235;-54
2023/12/26 03:46:53;;;;;;;8.03;3.70;;;;;;;5.53;82.20;99215.38;4991013;28;20209;-54
2023/12/26 03:49:21;;;;;;;10.87;3.13;;;;;;;5.54;81.62;99214.50;4996401;28;20544;-55
2023/12/26 03:51:51;;;;;;;9.27;3.70;;;;;;;5.55;81.83;99201.69;5000789;28;20255;-56
2023/12/26 03:54:22;;;;;;;9.70;3.00;;;;;;;5.58;81.79;99203.41;4989347;28;20231;-55
2023/12/26 03:56:50;;;;;;;5.77;2.73;;;;;;;5.60;82.33;99193.16;4992975;28;20200;-56
2023/12/26 03:59:18;;;;;;;6.60;2.60;;;;;;;5.60;82.29;99191.47;4989484;28;20212;-57
2023/12/26 04:01:47;;;;;;;5.47;2.47;;;;;;;5.61;81.69;99194.88;4993017;28;20299;-54
2023/12/26 04:04:14;;;;;;;10.23;2.90;;;;;;;5.58;81.89;99178.69;4991259;28;20239;-55
2023/12/26 04:06:42;;;;;;;10.00;3.23;;;;;;;5.58;81.76;99175.28;4991632;28;20306;-54
2023/12/26 04:09:13;;;;;;;6.63;2.83;;;;;;;5.60;82.07;99171.03;5000289;28;20302;-55
2023/12/26 04:11:41;;;;;;;7.87;2.73;;;;;;;5.61;82.26;99175.28;4987294;28;20213;-57
2023/12/26 04:14:09;;;;;;;7.40;2.87;;;;;;;5.59;82.04;99169.31;4989082;28;20279;-54
2023/12/26 04:16:37;;;;;;;6.50;2.23;;;;;;;5.58;82.60;99155.69;4992042;28;20211;-53
2023/12/26 04:19:08;;;;;;;5.87;2.50;;;;;;;5.58;81.92;99157.41;4992584;28;20204;-57
2023/12/26 04:21:37;;;;;;;6.00;2.97;;;;;;;5.59;82.36;99151.44;4989725;28;20235;-55
2023/12/26 04:24:05;;;;;;;6.60;3.23;;;;;;;5.60;82.51;99153.16;4993915;28;20212;-55
2023/12/26 04:26:36;;;;;;;7.23;3.03;;;;;;;5.62;82.30;99156.53;4999485;28;20206;-54
2023/12/26 04:29:04;;;;;;;7.37;3.27;;;;;;;5.66;82.73;99162.47;4993074;28;20278;-56
2023/12/26 04:31:32;;;;;;;6.17;3.17;;;;;;;5.65;82.64;99146.28;4999027;28;20263;-53
2023/12/26 04:34:00;;;;;;;7.53;2.87;;;;;;;5.67;82.96;99147.16;5006899;28;20222;-54
2023/12/26 04:36:28;;;;;;;6.63;2.57;;;;;;;5.70;82.74;99139.44;4997427;28;20575;-55
2023/12/26 04:38:56;;;;;;;8.20;2.73;;;;;;;5.72;82.50;99142.84;5000572;28;20203;-63
2023/12/26 04:41:24;;;;;;;5.60;2.60;;;;;;;5.74;82.18;99146.25;4998130;28;20218;-55
2023/12/26 04:43:53;;;;;;;7.83;2.63;;;;;;;5.78;82.59;99135.16;5005870;28;20220;-56
2023/12/26 04:46:21;;;;;;;6.83;2.70;;;;;;;5.82;82.31;99141.09;4995414;28;20682;-54
2023/12/26 04:48:49;;;;;;;5.43;2.27;;;;;;;5.86;83.29;99136.81;4996091;28;20582;-54
2023/12/26 04:51:18;;;;;;;8.23;2.90;;;;;;;5.88;83.42;99130.78;4998802;28;20200;-54
2023/12/26 04:53:46;;;;;;;4.33;2.30;;;;;;;5.88;83.48;99118.00;4999220;28;20298;-54
2023/12/26 04:56:17;;;;;;;8.00;2.63;;;;;;;5.92;83.23;99129.94;4995118;28;20200;-57
2023/12/26 04:58:46;;;;;;;7.73;2.37;;;;;;;5.92;83.35;99112.03;4987443;28;20207;-60
2023/12/26 05:01:16;;;;;;;6.00;2.27;;;;;;;5.93;83.30;99108.66;4985904;28;20711;-54
2023/12/26 05:03:44;;;;;;;4.10;2.17;;;;;;;5.94;83.76;99104.38;5000737;28;20199;-51
2023/12/26 05:06:13;;;;;;;10.00;2.40;;;;;;;5.93;83.42;99100.09;4999624;28;20216;-54
2023/12/26 05:08:41;;;;;;;7.50;2.43;;;;;;;5.94;84.75;99086.47;4995606;28;20567;-57
2023/12/26 05:11:09;;;;;;;9.23;2.50;;;;;;;5.96;84.61;99090.69;4988863;28;20211;-55
2023/12/26 05:13:37;;;;;;;7.43;2.50;;;;;;;5.99;84.43;99092.41;4991794;28;20568;-54
2023/12/26 05:16:06;;;;;;;6.70;2.93;;;;;;;6.00;85.36;99077.06;4994250;28;20616;-57
2023/12/26 05:18:36;;;;;;;5.47;2.43;;;;;;;6.01;86.03;99081.31;5001102;28;20294;-55
2023/12/26 05:21:04;;;;;;;6.67;2.67;;;;;;;6.06;86.61;99081.25;4992643;28;20215;-56
2023/12/26 05:23:32;;;;;;;4.90;2.30;;;;;;;6.06;87.33;99073.59;4996719;28;20250;-53
2023/12/26 05:26:00;;;;;;;6.07;2.57;;;;;;;6.05;87.18;99067.63;4995494;28;20682;-54
2023/12/26 05:28:39;;;;;;;6.73;2.60;;;;;;;6.02;88.19;99070.22;4990499;28;20204;-54
2023/12/26 05:31:08;;;;;;;6.03;2.30;;;;;;;6.03;88.92;99063.38;4999599;28;20655;-55
2023/12/26 05:33:38;;;;;;;4.27;2.20;;;;;;;6.03;89.88;99055.72;4993022;28;20554;-54
2023/12/26 05:36:06;;;;;;;6.03;2.80;;;;;;;6.02;90.23;99052.31;4996761;28;20274;-54
2023/12/26 05:38:36;;;;;;;7.13;2.67;;;;;;;6.02;90.87;99043.78;4998380;28;20266;-56
2023/12/26 05:41:04;;;;;;;5.43;2.63;;;;;;;6.02;91.01;99038.69;4998430;28;20307;-55
2023/12/26 05:43:32;;;;;;;5.90;3.07;;;;;;;6.03;92.23;99041.22;4993163;28;20204;-56
2023/12/26 05:46:02;;;;;;;4.87;2.80;;;;;;;6.02;92.85;99041.22;4998588;28;20277;-55
2023/12/26 05:48:30;;;;;;;6.07;3.00;;;;;;;6.02;94.45;99033.56;4998958;28;20681;-54
2023/12/26 05:50:59;;;;;;;5.03;2.90;;;;;;;6.03;94.77;99035.25;5004893;28;20371;-57
2023/12/26 05:53:29;;;;;;;7.63;3.43;;;;;;;6.03;94.92;99032.69;4993764;28;20659;-59
2023/12/26 05:55:57;;;;;;;5.77;3.40;;;;;;;6.03;95.98;99033.53;4987829;28;20659;-57
2023/12/26 05:58:25;;;;;;;6.43;3.37;;;;;;;6.02;95.89;99016.50;4998683;28;20204;-54
2023/12/26 06:00:53;;;;;;;6.83;3.37;;;;;;;6.07;96.92;99015.63;4998355;28;20673;-56
2023/12/26 06:03:21;;;;;;;6.17;3.07;;;;;;;6.08;98.05;99010.50;5002570;28;20747;-53
2023/12/26 06:05:49;;;;;;;6.70;3.70;;;;;;;6.09;98.28;99001.97;4994414;28;20311;-55
2023/12/26 06:08:19;;;;;;;5.73;3.37;;;;;;;6.12;98.79;98995.97;4997730;28;20212;-56
2023/12/26 06:10:47;;;;;;;9.27;3.70;;;;;;;6.14;99.65;99001.91;4994874;28;20667;-55
2023/12/26 06:13:15;;;;;;;4.57;3.23;;;;;;;6.12;100.00;98994.25;4992948;28;20203;-55
2023/12/26 06:15:43;;;;;;;4.37;3.23;;;;;;;6.11;100.00;98989.13;4994839;28;20656;-54
2023/12/26 06:18:11;;;;;;;6.00;3.30;;;;;;;6.13;100.00;98983.16;4998408;28;20203;-57
2023/12/26 06:20:39;;;;;;;4.07;3.43;;;;;;;6.14;100.00;98982.28;4995208;28;20274;-51
2023/12/26 06:23:07;;;;;;;5.00;3.40;;;;;;;6.15;100.00;98973.78;5000228;28;20246;-54
2023/12/26 06:25:36;;;;;;;4.97;3.83;;;;;;;6.16;100.00;98975.47;4996052;28;20274;-54
2023/12/26 06:28:05;;;;;;;4.40;3.17;;;;;;;6.18;100.00;98972.88;4990857;28;20200;-56
2023/12/26 06:30:33;;;;;;;5.53;3.63;;;;;;;6.20;100.00;98976.28;4995659;28;20695;-54
2023/12/26 06:33:01;;;;;;;5.27;3.80;;;;;;;6.22;100.00;98970.28;4989316;28;20234;-55
2023/12/26 06:35:29;;;;;;;4.10;3.37;;;;;;;6.24;100.00;98967.69;4991957;28;20294;-54
2023/12/26 06:37:57;;;;;;;3.37;2.97;;;;;;;6.27;100.00;98960.00;4998931;28;20207;-57
2023/12/26 06:40:25;;;;;;;7.27;4.03;;;;;;;6.27;100.00;98948.03;4994509;28;20204;-54
2023/12/26 06:42:54;;;;;;;5.00;3.47;;;;;;;6.31;100.00;98948.00;4999899;28;20232;-55
2023/12/26 06:45:22;;;;;;;4.80;3.57;;;;;;;6.33;100.00;98944.56;4990480;28;20223;-54
2023/12/26 06:47:50;;;;;;;5.13;3.60;;;;;;;6.34;100.00;98946.25;4989832;28;20230;-59
2023/12/26 06:50:18;;;;;;;5.00;3.70;;;;;;;6.37;100.00;98945.34;4992684;28;20604;-53
2023/12/26 06:52:46;;;;;;;5.20;3.70;;;;;;;6.40;100.00;98940.22;4992421;28;20211;-54
2023/12/26 06:55:15;;;;;;;5.90;3.60;;;;;;;6.43;100.00;98937.63;4988885;28;20200;-53
2023/12/26 06:57:46;;;;;;;4.77;3.93;;;;;;;6.46;100.00;98932.47;4995229;28;20268;-55
2023/12/26 07:00:17;;;;;;;3.77;3.10;;;;;;;6.47;100.00;98932.44;4996504;28;20235;-55
2023/12/26 07:02:45;;;;;;;3.93;3.47;;;;;;;6.50;100.00;98934.97;4984638;28;20520;-55
2023/12/26 07:05:13;;;;;;;4.03;3.33;;;;;;;6.53;100.00;98926.41;4991639;28;20257;-54
2023/12/26 07:07:41;;;;;;;5.67;3.70;;;;;;;6.54;100.00;98915.28;5004981;28;20619;-55
2023/12/26 07:10:09;;;;;;;4.67;3.83;;;;;;;6.59;100.00;98913.53;4998574;28;20235;-54
2023/12/26 07:12:37;;;;;;;4.83;3.53;;;;;;;6.62;100.00;98913.47;4993864;28;20208;-52
2023/12/26 07:15:06;;;;;;;7.27;3.70;;;;;;;6.65;100.00;98908.31;4990966;28;20276;-55
2023/12/26 07:17:35;;;;;;;5.07;3.80;;;;;;;6.67;100.00;98916.81;4993786;28;20250;-56
2023/12/26 07:20:04;;;;;;;3.60;3.13;;;;;;;6.70;100.00;98906.56;4995364;28;20200;-55
2023/12/26 07:22:32;;;;;;;4.27;3.87;;;;;;;6.71;100.00;98898.00;4995632;28;20240;-55
2023/12/26 07:24:59;;;;;;;4.27;3.87;;;;;;;6.75;100.00;98907.31;4989585;28;20421;-53
2023/12/26 07:27:27;;;;;;;3.90;3.30;;;;;;;6.77;100.00;98903.03;4993484;28;20223;-53
2023/12/26 07:29:55;;;;;;;4.60;4.20;;;;;;;6.80;100.00;98896.16;4991291;28;20235;-56
2023/12/26 07:32:23;;;;;;;5.23;4.00;;;;;;;6.82;100.00;98889.31;4987988;28;20711;-55
2023/12/26 07:34:53;;;;;;;4.53;4.03;;;;;;;6.82;100.00;98890.16;4996592;28;20282;-59
2023/12/26 07:37:20;;;;;;;4.97;3.83;;;;;;;6.85;100.00;98886.69;5000806;28;20637;-57
2023/12/26 07:39:48;;;;;;;3.67;3.37;;;;;;;6.87;100.00;98874.72;4995416;28;20615;-54
2023/12/26 07:42:16;;;;;;;5.10;4.17;;;;;;;6.87;100.00;98874.72;4999346;28;20219;-53
2023/12/26 07:44:44;;;;;;;5.47;4.20;;;;;;;6.91;100.00;98873.81;4990453;28;20214;-57
2023/12/26 07:47:15;;;;;;;6.07;3.90;;;;;;;6.93;100.00;98869.53;5003141;28;20227;-59
2023/12/26 07:49:43;;;;;;;4.80;3.50;;;;;;;6.94;100.00;98873.75;4996904;28;20206;-55
2023/12/26 07:52:12;;;;;;;6.10;4.43;;;;;;;6.95;100.00;98881.41;4991874;28;20211;-52
2023/12/26 07:54:40;;;;;;;4.43;4.03;;;;;;;6.98;100.00;98877.97;4986875;28;20266;-55
2023/12/26 07:57:08;;;;;;;4.97;4.40;;;;;;;6.98;100.00;98881.38;4998516;28;20735;-55
2023/12/26 07:59:36;;;;;;;5.17;4.67;;;;;;;7.00;100.00;98866.00;4993412;28;20218;-53
2023/12/26 08:02:04;;;;;;;4.57;4.00;;;;;;;7.02;100.00;98846.31;4993973;28;20643;-51
2023/12/26 08:04:32;;;;;;;4.20;3.77;;;;;;;7.02;100.00;98841.19;4996498;28;20208;-56
2023/12/26 08:07:00;;;;;;;5.33;4.27;;;;;;;7.05;100.00;98856.50;4989914;28;20494;-55
2023/12/26 08:09:29;;;;;;;5.30;4.40;;;;;;;7.07;100.00;98848.78;4996472;28;20204;-52
2023/12/26 08:11:57;;;;;;;4.30;3.83;;;;;;;7.10;100.00;98854.69;4992180;28;20214;-54
2023/12/26 08:14:25;;;;;;;4.43;4.03;;;;;;;7.12;100.00;98847.00;5000835;28;20210;-55
2023/12/26 08:16:53;;;;;;;4.77;4.13;;;;;;;7.17;100.00;98845.19;5006204;28;20208;-53
2023/12/26 08:19:21;;;;;;;3.97;3.57;;;;;;;7.21;100.00;98847.69;5000803;28;20200;-56
2023/12/26 08:21:49;;;;;;;4.20;3.80;;;;;;;7.28;100.00;98847.59;4960712;28;1074399;-59
2023/12/26 08:24:17;;;;;;;3.83;3.40;;;;;;;7.33;100.00;98843.22;4997358;28;20207;-57
2023/12/26 08:26:46;;;;;;;3.80;3.27;;;;;;;7.40;100.00;98843.09;4995714;28;20697;-55
2023/12/26 08:29:14;;;;;;;3.10;2.80;;;;;;;7.45;100.00;98825.91;4995896;28;20260;-55
2023/12/26 08:31:42;;;;;;;2.70;2.50;;;;;;;7.54;100.00;98836.84;4993704;28;20208;-55
2023/12/26 08:34:10;;;;;;;2.67;2.47;;;;;;;7.60;100.00;98839.31;4991854;28;20196;-56
2023/12/26 08:36:38;;;;;;;2.43;2.23;;;;;;;7.72;100.00;98826.25;4995317;28;20299;-55
2023/12/26 08:39:06;;;;;;;2.00;1.80;;;;;;;7.81;100.00;98838.06;4994163;28;20652;-56
2023/12/26 08:41:34;;;;;;;1.97;1.73;;;;;;;7.90;100.00;98838.72;4994917;28;20626;-58
2023/12/26 08:44:03;;;;;;;2.50;2.30;;;;;;;7.98;100.00;98836.00;4995752;28;20211;-59
2023/12/26 08:46:31;;;;;;;3.07;1.93;;;;;;;8.08;100.00;98829.78;4993272;28;20225;-53
2023/12/26 08:48:59;;;;;;;2.10;1.73;;;;;;;8.16;100.00;98830.47;4994890;28;20663;-54
2023/12/26 08:51:28;;;;;;;2.57;2.30;;;;;;;8.24;100.00;98825.16;4990886;28;20616;-54
2023/12/26 08:53:55;;;;;;;2.63;2.00;;;;;;;8.29;100.00;98819.97;4994391;28;20227;-55
2023/12/26 08:56:24;;;;;;;2.13;1.97;;;;;;;8.35;100.00;98814.69;4996864;28;20288;-52
2023/12/26 08:58:52;;;;;;;2.00;1.90;;;;;;;8.38;100.00;98823.19;4996593;28;20295;-54
2023/12/26 09:01:21;;;;;;;1.90;1.80;;;;;;;8.40;100.00;98818.88;5002836;28;20222;-52
2023/12/26 09:03:49;;;;;;;2.20;2.00;;;;;;;8.46;100.00;98815.31;5002343;28;20729;-57
2023/12/26 09:06:17;;;;;;;2.10;1.90;;;;;;;8.49;100.00;98829.81;4993560;28;20199;-58
2023/12/26 09:08:45;;;;;;;2.23;1.80;;;;;;;8.51;100.00;98835.75;5001099;28;20204;-54
2023/12/26 09:11:13;;;;;;;1.97;1.87;;;;;;;8.54;100.00;98831.38;5002298;28;20210;-57
2023/12/26 09:13:41;;;;;;;1.87;1.77;;;;;;;8.58;100.00;98806.47;4998924;28;20729;-52
2023/12/26 09:16:09;;;;;;;2.10;1.90;;;;;;;8.61;100.00;98822.66;4996384;28;20199;-53
2023/12/26 09:18:40;;;;;;;2.97;1.80;;;;;;;8.64;100.00;98832.84;4994278;28;20214;-53
2023/12/26 09:21:08;;;;;;;1.80;1.70;;;;;;;8.68;100.00;98820.78;4999626;28;20270;-56
2023/12/26 09:23:36;;;;;;;2.03;1.70;;;;;;;8.71;100.00;98816.44;4995902;28;20222;-55
2023/12/26 09:26:05;;;;;;;4.23;1.60;;;;;;;8.74;100.00;98815.53;4995764;28;20671;-56
2023/12/26 09:28:33;;;;;;;1.93;1.70;;;;;;;8.77;100.00;98822.31;4999171;28;20216;-54
2023/12/26 09:31:01;;;;;;;1.87;1.70;;;;;;;8.80;100.00;98828.22;4992341;28;20697;-53
2023/12/26 09:33:29;;;;;;;1.50;1.30;;;;;;;8.81;100.00;98819.63;5002256;28;20609;-51
2023/12/26 09:35:59;;;;;;;1.70;1.50;;;;;;;8.84;100.00;98819.56;4998934;28;20203;-55
2023/12/26 09:38:27;;;;;;;2.37;1.60;;;;;;;8.90;100.00;98827.09;5001828;28;20196;-55
2023/12/26 09:40:55;;;;;;;1.73;1.30;;;;;;;8.95;100.00;98821.88;4991718;28;20254;-55
2023/12/26 09:43:23;;;;;;;1.23;1.13;;;;;;;8.96;100.00;98813.28;4994503;28;20212;-56
2023/12/26 09:45:51;;;;;;;1.43;1.33;;;;;;;8.97;100.00;98825.22;4993983;28;20302;-57
2023/12/26 09:48:19;;;;;;;1.47;1.37;;;;;;;8.98;100.00;98832.03;4996852;28;20583;-57
2023/12/26 09:50:47;;;;;;;1.47;1.37;;;;;;;9.00;100.00;98821.75;4999744;28;20624;-57
2023/12/26 09:53:21;;;;;;;2.10;1.50;;;;;;;9.01;100.00;98837.13;4994022;28;20800;-55
2023/12/26 09:55:49;;;;;;;1.70;1.50;;;;;;;9.03;100.00;98834.53;4995367;28;20212;-55
2023/12/26 09:58:18;;;;;;;1.60;1.40;;;;;;;9.02;100.00;98840.53;4996864;28;20250;-54
2023/12/26 10:00:49;;;;;;;1.60;1.50;;;;;;;9.00;100.00;98861.13;4990043;28;20295;-55
2023/12/26 10:03:18;;;;;;;1.70;1.60;;;;;;;8.99;100.00;98846.59;4995671;28;20211;-54
2023/12/26 10:05:47;;;;;;;1.87;1.70;;;;;;;8.98;100.00;98857.75;4991378;28;20230;-55
2023/12/26 10:08:14;;;;;;;2.20;1.67;;;;;;;8.95;100.00;98845.84;4998061;28;20233;-53
2023/12/26 10:10:45;;;;;;;2.07;1.90;;;;;;;8.92;100.00;98847.63;4994393;28;20582;-56
2023/12/26 10:13:13;;;;;;;3.27;2.00;;;;;;;8.89;100.00;98860.53;4996484;28;20578;-57
2023/12/26 10:15:42;;;;;;;1.77;1.53;;;;;;;8.85;100.00;98859.78;4997876;28;20624;-55
2023/12/26 10:18:11;;;;;;;1.80;1.70;;;;;;;8.83;100.00;98858.94;5000113;28;20590;-55
2023/12/26 10:20:40;;;;;;;1.90;1.70;;;;;;;8.82;100.00;98866.69;4989516;28;20263;-52
2023/12/26 10:23:08;;;;;;;2.70;2.33;;;;;;;8.83;100.00;98855.53;4994732;28;20362;-57
2023/12/26 10:25:36;;;;;;;1.87;1.70;;;;;;;8.85;100.00;98887.19;4995789;28;20212;-55
2023/12/26 10:28:06;;;;;;;1.80;1.60;;;;;;;8.86;100.00;98889.69;4994625;28;20212;-55
2023/12/26 10:30:34;;;;;;;1.93;1.70;;;;;;;8.90;100.00;98893.88;4998541;28;20211;-57
2023/12/26 10:33:03;;;;;;;2.00;1.40;;;;;;;8.92;100.00;98889.56;4995229;28;20219;-57
2023/12/26 10:35:33;;;;;;;2.50;1.50;;;;;;;8.94;100.00;98894.66;4994610;28;20258;-54
2023/12/26 10:38:02;;;;;;;1.60;1.30;;;;;;;8.94;100.00;98894.66;4990659;28;20214;-55
2023/12/26 10:40:30;;;;;;;1.50;1.40;;;;;;;8.95;100.00;98891.22;4992969;28;20222;-54
2023/12/26 10:42:58;;;;;;;1.40;1.30;;;;;;;8.94;100.00;98887.78;4996428;28;20621;-58
2023/12/26 10:45:30;;;;;;;1.40;1.30;;;;;;;8.95;100.00;98906.66;4992580;28;20283;-55
2023/12/26 10:47:59;;;;;;;2.70;1.43;;;;;;;8.99;100.00;98905.69;4992400;28;20231;-58
2023/12/26 10:50:32;;;;;;;1.50;1.40;;;;;;;9.02;100.00;98918.47;4993872;28;20210;-53
2023/12/26 10:53:00;;;;;;;2.20;1.50;;;;;;;9.03;100.00;98922.72;4986356;28;20242;-55
2023/12/26 10:55:29;;;;;;;1.67;1.57;;;;;;;9.03;100.00;98912.44;4992692;28;20563;-53
2023/12/26 10:57:57;;;;;;;1.73;1.40;;;;;;;9.02;100.00;98905.63;4991721;28;20196;-56
2023/12/26 11:00:24;;;;;;;1.83;1.73;;;;;;;9.02;100.00;98907.31;4993067;28;20633;-54
2023/12/26 11:02:54;;;;;;;1.93;1.73;;;;;;;9.03;100.00;98904.75;5000719;28;20230;-53
2023/12/26 11:05:21;;;;;;;1.90;1.70;;;;;;;9.03;100.00;98899.59;4987592;28;20228;-52
2023/12/26 11:07:48;;;;;;;1.57;1.47;;;;;;;9.06;100.00;98903.84;4992610;28;20220;-56
2023/12/26 11:10:16;;;;;;;2.20;1.63;;;;;;;9.05;100.00;98899.56;4993557;28;20295;-56
2023/12/26 11:12:43;;;;;;;2.63;2.00;;;;;;;9.05;100.00;98910.66;4991826;28;20282;-59
2023/12/26 11:15:10;;;;;;;2.83;2.10;;;;;;;9.04;100.00;98895.31;4993803;28;20207;-50
2023/12/26 11:17:38;;;;;;;2.10;1.90;;;;;;;9.06;100.00;98899.53;4991706;28;20205;-54
2023/12/26 11:20:06;;;;;;;2.63;1.80;;;;;;;9.06;100.00;98907.25;4988123;28;20208;-54
2023/12/26 11:22:33;;;;;;;1.90;1.70;;;;;;;9.05;99.17;98915.81;4992578;28;20240;-56
2023/12/26 11:25:01;;;;;;;1.70;1.60;;;;;;;9.04;98.72;98911.56;4995493;28;20219;-55
2023/12/26 11:27:28;;;;;;;1.73;1.13;;;;;;;9.03;98.86;98915.00;4991671;28;20199;-51
2023/12/26 11:29:56;;;;;;;1.70;1.60;;;;;;;9.01;98.32;98914.19;4991213;28;20651;-54
2023/12/26 11:32:24;;;;;;;1.60;1.27;;;;;;;9.02;97.48;98915.91;4984998;28;20336;-59
2023/12/26 11:34:50;;;;;;;1.43;1.30;;;;;;;9.01;97.44;98903.91;4993199;28;20639;-56
2023/12/26 11:37:19;;;;;;;1.40;1.30;;;;;;;9.02;97.20;98923.59;4998308;28;20204;-55
2023/12/26 11:39:47;;;;;;;2.13;1.40;;;;;;;9.07;97.50;98919.19;4982666;28;20274;-55
2023/12/26 11:42:14;;;;;;;2.23;1.50;;;;;;;9.12;96.04;98942.22;4990305;28;20326;-55